Battle Creek, MI (49014)

11:08 AM EST on February 10, 2016 (GMT -0500)
Wattles Park | | Change Station
CLOSE
Current Station
Personal Weather Station
Location: Battle Creek, MI
Elevation: 903 ft
Nearby Weather Stations

Elev 903 ft 42.32 °N, 85.11 °W | Updated 8 seconds ago

Overcast
Overcast
18.6 °F
Feels Like 11 °F
N
5.0
Wind Variable Wind from NW
Gusts 12.0 mph

Today
High -- | Low -- °F
--% Chance of Precip.
Yesterday
High -- | Low -- °F
Precip. -- in
Pressure 29.92 in
Visibility 9.0 miles
Clouds Few 2600 ft
Mostly Cloudy 3500 ft
Overcast 4400 ft
Windchill 11 °F
Dew Point 10 °F
Humidity 68%
Rainfall 0.00 in
Snow Depth Not available.
7:44 AM 6:05 PM
Waxing Crescent, 6% visible
METAR KBTL 101553Z 32012KT 9SM FEW026 BKN035 OVC044 M07/M13 A2987 RMK AO2 SNB02E11B30E48 SLP130 P0000 T10721133
Pressure 29.92 in
Visibility 9.0 miles
Clouds Few 2600 ft
Mostly Cloudy 3500 ft
Overcast 4400 ft
Windchill 11 °F
Dew Point 10 °F
Humidity 68%
Rainfall 0.00 in
Snow Depth Not available.
7:44 AM 6:05 PM
Waxing Crescent, 6% visible
METAR KBTL 101553Z 32012KT 9SM FEW026 BKN035 OVC044 M07/M13 A2987 RMK AO2 SNB02E11B30E48 SLP130 P0000 T10721133

10-Day Weather Forecast

Almanac

Astronomy

Feb. 10, 2016 Rise Set
Actual Time
Civil Twilight
Nautical Twilight
Astronomical Twilight
Moon
Length of Visible Light
Length of Day
Tomorrow will be .
, % of the Moon is Illuminated

Today's Extremes

State Highs State Lows

Community

WunderPhotos

Upload Photos

1,891,862 photos uploaded!

WunderBlog® & News

Nearby

Air Quality

  Air Quality AQ Index Pollutant
Not available.

Snow Depth

Station Depth Elevation

Earthquake Activity

City Distance Mag. Time & Date
Minimum magnitude displayed is 2.5.

Coastal Water Temperatures

Place Temperature

Stations

Nearby Weather Stations

Station Location Temp. Windchill Dew Point Humidity Wind Precip. Elev Updated Type
                   

Watches & Warnings

There are currently no watches in effect.